地図

経路データ

SID SEASON NUMBER BASIN SUBBASIN NAME ISO_TIME NATURE LAT LON WMO_WIND WMO_PRES WMO_AGENCY TRACK_TYPE DIST2LAND LANDFALL IFLAG USA_AGENCY USA_ATCF_ID USA_LAT USA_LON USA_RECORD USA_STATUS USA_WIND USA_PRES USA_SSHS USA_R34_NE USA_R34_SE USA_R34_SW USA_R34_NW USA_R50_NE USA_R50_SE USA_R50_SW USA_R50_NW USA_R64_NE USA_R64_SE USA_R64_SW USA_R64_NW USA_POCI USA_ROCI USA_RMW USA_EYE TOKYO_LAT TOKYO_LON TOKYO_GRADE TOKYO_WIND TOKYO_PRES TOKYO_R50_DIR TOKYO_R50_LONG TOKYO_R50_SHORT TOKYO_R30_DIR TOKYO_R30_LONG TOKYO_R30_SHORT TOKYO_LAND CMA_LAT CMA_LON CMA_CAT CMA_WIND CMA_PRES HKO_LAT HKO_LON HKO_CAT HKO_WIND HKO_PRES NEWDELHI_LAT NEWDELHI_LON NEWDELHI_GRADE NEWDELHI_WIND NEWDELHI_PRES NEWDELHI_CI NEWDELHI_DP NEWDELHI_POCI REUNION_LAT REUNION_LON REUNION_TYPE REUNION_WIND REUNION_PRES REUNION_TNUM REUNION_CI REUNION_RMW REUNION_R34_NE REUNION_R34_SE REUNION_R34_SW REUNION_R34_NW REUNION_R50_NE REUNION_R50_SE REUNION_R50_SW REUNION_R50_NW REUNION_R64_NE REUNION_R64_SE REUNION_R64_SW REUNION_R64_NW BOM_LAT BOM_LON BOM_TYPE BOM_WIND BOM_PRES BOM_TNUM BOM_CI BOM_RMW BOM_R34_NE BOM_R34_SE BOM_R34_SW BOM_R34_NW BOM_R50_NE BOM_R50_SE BOM_R50_SW BOM_R50_NW BOM_R64_NE BOM_R64_SE BOM_R64_SW BOM_R64_NW BOM_ROCI BOM_POCI BOM_EYE BOM_POS_METHOD BOM_PRES_METHOD NADI_LAT NADI_LON NADI_CAT NADI_WIND NADI_PRES WELLINGTON_LAT WELLINGTON_LON WELLINGTON_WIND WELLINGTON_PRES DS824_LAT DS824_LON DS824_STAGE DS824_WIND DS824_PRES TD9636_LAT TD9636_LON TD9636_STAGE TD9636_WIND TD9636_PRES TD9635_LAT TD9635_LON TD9635_WIND TD9635_PRES TD9635_ROCI NEUMANN_LAT NEUMANN_LON NEUMANN_CLASS NEUMANN_WIND NEUMANN_PRES MLC_LAT MLC_LON MLC_CLASS MLC_WIND MLC_PRES USA_GUST BOM_GUST BOM_GUST_PER REUNION_GUST REUNION_GUST_PER USA_SEAHGT USA_SEARAD_NE USA_SEARAD_SE USA_SEARAD_SW USA_SEARAD_NW STORM_SPEED STORM_DIR
1961001S13092 1961 1 SI WA NOT_NAMED 1960-12-31 18:00:00 NR -12.5000 91.5000 main 1459 1459 O_____________ jtwc_sh SH091961 -12.5000 91.5000 -1 5 232
1961001S13092 1961 1 SI WA NOT_NAMED 1960-12-31 19:00:00 NR -12.5490 91.4419 main 1465 1465 P_____________ SH091961 -12.5490 91.4419 -1 4 226
1961001S13092 1961 1 SI WA NOT_NAMED 1960-12-31 21:00:00 NR -12.6476 91.3426 main 1481 1481 P_____________ SH091961 -12.6476 91.3426 -1 4 221
1961001S13092 1961 1 SI WA NOT_NAMED 1960-12-31 22:00:00 NR -12.6977 91.3099 main 1490 1490 P_____________ SH091961 -12.6977 91.3099 -1 3 196
1961001S13092 1961 1 SI WA NOT_NAMED 1961-01-01 00:00:00 NR -12.8000 91.3000 main 1499 1499 O_____________ jtwc_sh SH091961 -12.8000 91.3000 -1 3 0
1961001S13092 1961 1 SI WA NOT_NAMED 1961-01-01 01:00:00 NR -12.8525 91.3307 main 1508 1496 P_____________ SH091961 -12.8525 91.3307 -1 5 133
1961001S13092 1961 1 SI WA NOT_NAMED 1961-01-01 03:00:00 NR -12.9572 91.4725 main 1505 1499 P_____________ SH091961 -12.9572 91.4725 -1 6 122
1961001S13092 1961 1 SI WA NOT_NAMED 1961-01-01 04:00:00 NR -13.0076 91.5855 main 1499 1491 P_____________ SH091961 -13.0076 91.5855 -1 9 109
1961001S13092 1961 1 SI WA NOT_NAMED 1961-01-01 06:00:00 NR -13.1000 91.9000 main 1491 1480 O_____________ jtwc_sh SH091961 -13.1000 91.9000 -1 10 105
1961001S13092 1961 1 SI WA NOT_NAMED 1961-01-01 07:00:00 NR -13.1418 92.0960 main 1480 1468 P_____________ SH091961 -13.1418 92.0960 -1 13 100
1961001S13092 1961 1 SI WA NOT_NAMED 1961-01-01 09:00:00 NR -13.2152 92.5750 main 1463 1453 P_____________ SH091961 -13.2152 92.5750 -1 15 98
1961001S13092 1961 1 SI WA NOT_NAMED 1961-01-01 10:00:00 NR -13.2468 92.8432 main 1453 1428 P_____________ SH091961 -13.2468 92.8432 -1 16 96
1961001S13092 1961 1 SI WA NOT_NAMED 1961-01-01 12:00:00 NR -13.3000 93.4000 main 1428 1377 O_____________ jtwc_sh SH091961 -13.3000 93.4000 -1 16 95
1961001S13092 1961 1 SI WA NOT_NAMED 1961-01-01 15:00:00 NR -13.3575 94.2151 main 1378 1364 P_____________ SH091961 -13.3575 94.2151 -1 16 94
1961001S13092 1961 1 SI WA NOT_NAMED 1961-01-01 16:00:00 NR -13.3721 94.4850 main 1357 1321 P_____________ SH091961 -13.3721 94.4850 -1 15 93
1961001S13092 1961 1 SI WA NOT_NAMED 1961-01-01 18:00:00 NR -13.4000 95.0000 main 1321 1272 O_____________ jtwc_sh SH091961 -13.4000 95.0000 -1 14 93
1961001S13092 1961 1 SI WA NOT_NAMED 1961-01-01 21:00:00 NR -13.4348 95.7026 main 1272 1258 P_____________ SH091961 -13.4348 95.7026 -1 13 93
1961001S13092 1961 1 SI WA NOT_NAMED 1961-01-01 22:00:00 NR -13.4508 95.9147 main 1264 1229 P_____________ SH091961 -13.4508 95.9147 -1 12 96
1961001S13092 1961 1 SI WA NOT_NAMED 1961-01-02 00:00:00 NR -13.5000 96.3000 main 1229 1212 O_____________ jtwc_sh SH091961 -13.5000 96.3000 -1 11 98
1961001S13092 1961 1 SI WA NOT_NAMED 1961-01-02 01:00:00 NR -13.5333 96.4886 main 1212 1193 P_____________ SH091961 -13.5333 96.4886 -1 11 103
1961001S13092 1961 1 SI WA NOT_NAMED 1961-01-02 03:00:00 NR -13.6199 96.8249 main 1193 1185 P_____________ SH091961 -13.6199 96.8249 -1 10 107
1961001S13092 1961 1 SI WA NOT_NAMED 1961-01-02 04:00:00 NR -13.6733 96.9691 main 1184 1175 P_____________ SH091961 -13.6733 96.9691 -1 8 116
1961001S13092 1961 1 SI WA NOT_NAMED 1961-01-02 06:00:00 NR -13.8000 97.2000 main 1175 1166 O_____________ jtwc_sh SH091961 -13.8000 97.2000 -1 7 122
1961001S13092 1961 1 SI WA NOT_NAMED 1961-01-02 07:00:00 NR -13.8666 97.2895 main 1174 1166 P_____________ SH091961 -13.8666 97.2895 -1 6 137
1961001S13092 1961 1 SI WA NOT_NAMED 1961-01-02 09:00:00 NR -14.0199 97.4101 main 1173 1173 P_____________ SH091961 -14.0199 97.4101 -1 6 147
1961001S13092 1961 1 SI WA NOT_NAMED 1961-01-02 10:00:00 NR -14.1066 97.4484 main 1181 1173 P_____________ SH091961 -14.1066 97.4484 -1 6 163
1961001S13092 1961 1 SI WA NOT_NAMED 1961-01-02 12:00:00 NR -14.3000 97.5000 main 1189 1189 O_____________ jtwc_sh SH091961 -14.3000 97.5000 -1 7 169
1961001S13092 1961 1 SI WA NOT_NAMED 1961-01-02 15:00:00 NR -14.6425 97.5651 main 1205 1205 P_____________ SH091961 -14.6425 97.5651 -1 7 171
1961001S13092 1961 1 SI WA NOT_NAMED 1961-01-02 16:00:00 NR -14.7637 97.5776 main 1221 1221 P_____________ SH091961 -14.7637 97.5776 -1 7 173
1961001S13092 1961 1 SI WA NOT_NAMED 1961-01-02 18:00:00 NR -15.0000 97.6000 main 1237 1237 O_____________ jtwc_sh SH091961 -15.0000 97.6000 -1 7 172
1961001S13092 1961 1 SI WA NOT_NAMED 1961-01-02 19:00:00 NR -15.1031 97.6167 main 1245 1245 P_____________ SH091961 -15.1031 97.6167 -1 6 175
1961001S13092 1961 1 SI WA NOT_NAMED 1961-01-02 21:00:00 NR -15.3000 97.6500 main 1255 1255 P_____________ SH091961 -15.3000 97.6500 -1 6 174
1961001S13092 1961 1 SI WA NOT_NAMED 1961-01-02 22:00:00 NR -15.3975 97.6667 main 1263 1263 P_____________ SH091961 -15.3975 97.6667 -1 6 175
1961001S13092 1961 1 SI WA NOT_NAMED 1961-01-03 00:00:00 NR -15.6000 97.7000 main 1280 1280 O_____________ jtwc_sh SH091961 -15.6000 97.7000 -1 6 172
1961001S13092 1961 1 SI WA NOT_NAMED 1961-01-03 01:00:00 NR -15.7082 97.7167 main 1289 1289 P_____________ SH091961 -15.7082 97.7167 -1 7 173
1961001S13092 1961 1 SI WA NOT_NAMED 1961-01-03 03:00:00 NR -15.9375 97.7500 main 1306 1306 P_____________ SH091961 -15.9375 97.7500 -1 7 172
1961001S13092 1961 1 SI WA NOT_NAMED 1961-01-03 06:00:00 NR -16.3000 97.8000 main 1334 O_____________ jtwc_sh SH091961 -16.3000 97.8000 -1 7 174

IBTrACS Databaseについて

本データベースは、米国NOAAが公開する1842年以降の世界の熱帯低気圧のベストトラックデータアーカイブInternational Best Track Archive for Climate Stewardship (IBTrACS)を、ウェブで閲覧しやすい形式に変換したものです。

最終更新日:2021-11-26